Virginopolis, Brazil
Current Conditions -  °F | °C
As of 1:00 PM on Friday 24 Oct 2014 (Local Time) from SBIP Reporting Station
Broken Clouds Broken Clouds  
Wind Chill: 81°   Ceiling: 4500
Heat Index: 81°   Visibility: 6mi
Dew Point: 57°   Wind: 3mph
Humidity: 45%   Direction: 40°NE
Pressure: 30.03"   Gusts: NA
Location:  18.82°S, 42.7°W
Report Text: SBIP 241500Z 04003KT 9999 FEW025 BKN045 27/14 Q1017
Loading
Personal Weather Stations






























Interactive Weather Map
Tropical Storm Tracking
New forecast layout! Learn more

10-Day Weather Forecast

Advertisements
Track Severe Weather on mobile